Accueil
METAR-TAF:

METAR-TAF

Aéroports :

Aéroport international de Cần Thơ

Cần Thơ, Viêtnam

latitude: 10-05-07N, longitude: 105-42-43E, altitude: 3 m

Observation

Le bulletin a été fait il y a 31 minutes, à 23:00 UTC
Vent calme
Température 25°C
Humidité 100%
Pression 1008 hPa
Visibilité: 7000 m
Quelques nuages à une hauteur de 1500 ft
Nuages épars à une hauteur de 4000 ft

METAR: VVCT 182300Z 00000KT 7000 FEW015 SCT040 25/25 Q1008 NOSIG

Heure: 06:31 (23:31 UTC)

Prévision

Le bulletin a été fait il y a 6 heures et 31 minutes, à 17:00 UTC
Prévision valable du 18 à 18 UTC au 19 à 18 UTC
Vent 3 kt de direction variable
Visibilité 10 km ou plus
Nuages épars à une hauteur de 1500 ft
Nuages épars à une hauteur de 4000 ft
Evoluant progressivement
du 19 à 02 UTC au 19 à 03 UTC
Vent 10 kt de sud/sud-ouest

TAF: VVCT 181700Z 1818/1918 VRB03KT 9999 SCT015 SCT040 BECMG 1902/1903 20010KT

Observations et prévisions météorologiques de plus de 4000 aéroports (messages METAR et TAF).

Les stations disponibles sont représentées par des disques jaunes et rouges sur la carte.

Passer la souris dessus pour voir le nom de la station.

Cliquer dessus pour voir les observations et prévisions météorologiques.

Pour changer de carte: cliquez sur les boutons verts avec une croix noire pour zoomer, sur le bouton vert avec un tiret pour effectuer un zoom arrière, ou sur les flèches vertes pour les cartes adjacentes.


METAR-TAF: